createdAt,value
2018-12-18T00:01:15.745Z,65.60
2018-12-18T00:03:53.575Z,63.50
2018-12-18T00:06:31.708Z,68.87
2018-12-18T00:09:08.440Z,64.37
2018-12-18T00:11:44.864Z,67.93
2018-12-18T00:14:28.213Z,73.77
2018-12-18T00:17:04.093Z,81.50
2018-12-18T00:19:40.015Z,82.60
2018-12-18T00:22:15.774Z,72.07
2018-12-18T00:24:52.018Z,70.37
2018-12-18T00:27:27.985Z,69.93
2018-12-18T00:30:04.251Z,68.53
2018-12-18T00:32:39.935Z,80.20
2018-12-18T00:35:16.068Z,72.53
2018-12-18T00:37:55.445Z,82.03
2018-12-18T00:40:33.816Z,74.27
2018-12-18T00:43:09.830Z,79.10
2018-12-18T00:45:45.710Z,88.50
2018-12-18T00:48:22.863Z,70.13
2018-12-18T00:50:59.319Z,72.13
2018-12-18T00:53:35.291Z,72.90
2018-12-18T00:56:18.285Z,69.97
2018-12-18T00:58:54.898Z,70.87
2018-12-18T01:01:31.027Z,68.77
2018-12-18T01:04:07.069Z,75.70
2018-12-18T01:06:43.701Z,76.30
2018-12-18T01:09:22.856Z,67.27
2018-12-18T01:11:58.681Z,68.50
2018-12-18T01:14:34.543Z,86.43
2018-12-18T01:17:10.363Z,65.60
2018-12-18T01:19:46.448Z,63.17
2018-12-18T01:22:22.133Z,65.80
2018-12-18T01:24:58.076Z,71.03
2018-12-18T01:27:33.879Z,63.63
2018-12-18T01:30:09.844Z,66.43
2018-12-18T01:32:45.791Z,69.20
2018-12-18T01:35:21.479Z,64.90
2018-12-18T01:37:57.464Z,61.97
2018-12-18T01:40:33.465Z,66.50
2018-12-18T01:43:09.354Z,60.83
2018-12-18T01:45:45.108Z,62.43
2018-12-18T01:48:21.106Z,65.20
2018-12-18T01:50:57.242Z,62.87
2018-12-18T01:53:33.074Z,68.27
2018-12-18T01:56:08.986Z,62.63
2018-12-18T01:58:44.853Z,60.37
2018-12-18T02:01:20.767Z,58.43
2018-12-18T02:03:56.705Z,60.53
2018-12-18T02:06:32.397Z,60.03
2018-12-18T02:09:08.680Z,77.17
2018-12-18T02:11:46.360Z,65.10
2018-12-18T02:14:22.800Z,65.93
2018-12-18T02:16:58.505Z,57.47
2018-12-18T02:19:34.485Z,57.17
2018-12-18T02:22:10.307Z,58.97
2018-12-18T02:24:54.400Z,58.07
2018-12-18T02:27:31.035Z,54.73
2018-12-18T02:30:07.257Z,78.77
2018-12-18T02:32:43.750Z,59.80
2018-12-18T02:35:20.235Z,59.70
2018-12-18T02:37:56.225Z,62.37
2018-12-18T02:40:32.161Z,59.07
2018-12-18T02:43:08.256Z,62.67
2018-12-18T02:48:34.081Z,63.63
2018-12-18T02:51:12.120Z,62.80
2018-12-18T02:53:49.487Z,58.23
2018-12-18T02:56:25.561Z,58.93
2018-12-18T02:59:01.541Z,62.33
2018-12-18T03:01:37.305Z,56.47
2018-12-18T03:04:13.068Z,61.10
2018-12-18T03:06:48.967Z,59.13
2018-12-18T03:09:24.836Z,57.70
2018-12-18T03:12:00.785Z,58.20
2018-12-18T03:14:38.490Z,60.53
2018-12-18T03:17:14.594Z,60.03
2018-12-18T03:19:50.408Z,62.80
2018-12-18T03:22:26.289Z,64.13
2018-12-18T03:25:02.299Z,59.03
2018-12-18T03:27:38.239Z,65.70
2018-12-18T03:30:14.291Z,66.13
2018-12-18T03:32:53.899Z,73.40
2018-12-18T03:35:29.832Z,78.23
2018-12-18T03:38:05.834Z,80.57
2018-12-18T03:40:41.550Z,74.33
2018-12-18T03:43:17.259Z,70.60
2018-12-18T03:45:53.213Z,66.70
2018-12-18T03:48:29.333Z,67.43
2018-12-18T03:51:05.334Z,69.87
2018-12-18T03:53:41.129Z,88.17
2018-12-18T03:56:17.207Z,73.53
2018-12-18T03:58:52.884Z,69.53
2018-12-18T04:01:28.867Z,72.90
2018-12-18T04:04:04.840Z,74.33
2018-12-18T04:06:40.604Z,73.67
2018-12-18T04:09:16.643Z,66.87
2018-12-18T04:11:57.731Z,71.87
2018-12-18T04:14:33.392Z,67.93
2018-12-18T04:17:09.114Z,65.60
2018-12-18T04:19:46.012Z,66.57
2018-12-18T04:22:22.965Z,64.30
2018-12-18T04:24:59.096Z,64.33
2018-12-18T04:27:35.005Z,60.83
2018-12-18T04:30:11.208Z,62.90
2018-12-18T04:32:46.975Z,76.53
2018-12-18T04:35:24.907Z,66.20
2018-12-18T04:38:01.134Z,63.73
2018-12-18T04:40:36.818Z,61.67
2018-12-18T04:43:13.404Z,63.93
2018-12-18T04:45:49.429Z,66.37
2018-12-18T04:48:25.339Z,64.80
2018-12-18T04:51:01.226Z,67.30
2018-12-18T04:53:37.003Z,82.90
2018-12-18T04:56:12.827Z,66.87
2018-12-18T04:58:48.940Z,67.43
2018-12-18T05:01:24.881Z,68.10
2018-12-18T05:04:00.856Z,72.07
2018-12-18T05:06:36.905Z,75.67
2018-12-18T05:09:14.607Z,67.20
2018-12-18T05:11:50.767Z,71.73
2018-12-18T05:14:26.777Z,66.17
2018-12-18T05:17:02.576Z,60.93
2018-12-18T05:19:38.481Z,61.47
2018-12-18T05:22:14.762Z,59.77
2018-12-18T05:24:51.225Z,62.47
2018-12-18T05:27:27.336Z,65.83
2018-12-18T05:30:03.561Z,66.00
2018-12-18T05:32:40.764Z,70.90
2018-12-18T05:35:17.070Z,82.77
2018-12-18T05:37:52.954Z,76.03
2018-12-18T05:40:29.717Z,77.33
2018-12-18T05:43:05.493Z,85.27
2018-12-18T05:45:41.299Z,78.27
2018-12-18T05:48:17.319Z,76.93
2018-12-18T05:50:53.464Z,84.23
2018-12-18T05:53:29.956Z,84.07
2018-12-18T05:56:05.886Z,76.57
2018-12-18T05:58:41.786Z,72.37
2018-12-18T06:01:17.742Z,75.50
2018-12-18T06:03:54.322Z,70.63
2018-12-18T06:06:30.406Z,68.00
2018-12-18T06:09:07.637Z,65.57
2018-12-18T06:11:43.307Z,73.40
2018-12-18T06:14:19.144Z,65.83
2018-12-18T06:16:54.779Z,67.67
2018-12-18T06:19:30.567Z,68.60
2018-12-18T06:22:06.697Z,67.97
2018-12-18T06:24:42.387Z,69.73
2018-12-18T06:27:18.225Z,67.03
2018-12-18T06:29:54.270Z,70.80
2018-12-18T06:32:30.073Z,72.40
2018-12-18T06:35:10.269Z,71.27
2018-12-18T06:37:43.769Z,69.27
2018-12-18T06:40:19.655Z,65.43
2018-12-18T06:42:55.398Z,70.40
2018-12-18T06:45:31.182Z,71.47
2018-12-18T06:48:06.955Z,68.77
2018-12-18T06:50:42.928Z,70.77
2018-12-18T06:53:18.720Z,68.17
2018-12-18T06:55:54.403Z,64.87
2018-12-18T06:58:30.574Z,77.10
2018-12-18T07:01:06.323Z,72.67
2018-12-18T07:03:41.924Z,72.37
2018-12-18T07:06:18.091Z,68.37
2018-12-18T07:08:53.862Z,64.37
2018-12-18T07:11:30.027Z,63.90
2018-12-18T07:14:05.839Z,65.37
2018-12-18T07:16:41.840Z,66.43
2018-12-18T07:19:17.736Z,68.57
2018-12-18T07:21:53.584Z,68.53
2018-12-18T07:24:29.528Z,73.90
2018-12-18T07:27:05.314Z,68.87
2018-12-18T07:29:41.098Z,60.93
2018-12-18T07:32:16.683Z,69.67
2018-12-18T07:34:52.582Z,86.20
2018-12-18T07:37:28.483Z,102.77
2018-12-18T07:40:05.356Z,108.67
2018-12-18T07:42:41.133Z,112.77
2018-12-18T07:45:17.208Z,116.17
2018-12-18T07:47:53.054Z,111.77
2018-12-18T07:50:28.948Z,99.13
2018-12-18T07:53:04.735Z,100.53
2018-12-18T07:55:40.754Z,87.90
2018-12-18T07:58:16.379Z,99.10
2018-12-18T08:00:52.060Z,102.00
2018-12-18T08:03:27.977Z,90.07
2018-12-18T08:06:04.532Z,84.57
2018-12-18T08:08:40.229Z,71.87
2018-12-18T08:11:16.091Z,72.83
2018-12-18T08:13:51.957Z,69.43
2018-12-18T08:16:27.810Z,61.33
2018-12-18T08:19:03.829Z,63.83
2018-12-18T08:21:39.871Z,58.37
2018-12-18T08:24:16.115Z,69.23
2018-12-18T08:26:53.563Z,68.07
2018-12-18T08:29:29.629Z,63.20
2018-12-18T08:32:05.251Z,70.07
2018-12-18T08:34:41.369Z,72.00
2018-12-18T08:37:17.379Z,67.20
2018-12-18T08:39:53.361Z,69.00
2018-12-18T08:42:29.010Z,63.90
2018-12-18T08:45:06.007Z,72.87
2018-12-18T08:47:41.856Z,68.43
2018-12-18T08:50:17.455Z,66.03
2018-12-18T08:52:53.425Z,73.47
2018-12-18T08:55:29.442Z,69.87
2018-12-18T08:58:05.343Z,63.77
2018-12-18T09:00:41.206Z,66.73
2018-12-18T09:03:17.350Z,60.97
2018-12-18T09:05:53.332Z,57.23
2018-12-18T09:08:29.938Z,58.00
2018-12-18T09:11:06.262Z,57.83
2018-12-18T09:13:42.648Z,58.07
2018-12-18T09:16:24.773Z,62.80
2018-12-18T09:19:01.866Z,58.90
2018-12-18T09:21:37.773Z,55.73
2018-12-18T09:24:14.731Z,56.70
2018-12-18T09:26:51.170Z,58.43
2018-12-18T09:29:27.770Z,63.73
2018-12-18T09:32:05.322Z,62.83
2018-12-18T09:34:41.425Z,60.87
2018-12-18T09:37:18.466Z,59.40
2018-12-18T09:39:55.488Z,59.43
2018-12-18T09:42:36.904Z,56.57
2018-12-18T09:45:13.995Z,56.33
2018-12-18T09:47:49.759Z,57.77
2018-12-18T09:50:26.414Z,57.17
2018-12-18T09:53:03.024Z,53.23
2018-12-18T09:55:39.120Z,49.97
2018-12-18T09:58:15.362Z,50.40
2018-12-18T10:00:52.337Z,50.63
2018-12-18T10:03:33.420Z,49.57
2018-12-18T10:06:06.825Z,50.47
2018-12-18T10:08:42.606Z,50.87
2018-12-18T10:11:18.739Z,49.13
2018-12-18T10:13:55.294Z,49.23
2018-12-18T10:16:31.064Z,50.70
2018-12-18T10:19:06.826Z,51.73
2018-12-18T10:21:43.315Z,47.13
2018-12-18T10:24:19.686Z,51.03
2018-12-18T10:26:56.348Z,52.23
2018-12-18T10:29:32.088Z,51.67
2018-12-18T10:32:08.065Z,84.20
2018-12-18T10:34:43.616Z,127.17
2018-12-18T10:37:19.505Z,109.13
2018-12-18T10:39:55.641Z,76.37
2018-12-18T10:42:31.639Z,59.90
2018-12-18T10:45:13.859Z,59.03
2018-12-18T10:47:51.219Z,59.00
2018-12-18T10:50:27.180Z,55.27
2018-12-18T10:53:04.093Z,49.80
2018-12-18T10:55:39.899Z,49.57
2018-12-18T10:58:15.996Z,47.23
2018-12-18T11:00:57.219Z,47.43
2018-12-18T11:03:33.466Z,52.20
2018-12-18T11:06:10.230Z,53.93
2018-12-18T11:08:47.492Z,52.70
2018-12-18T11:11:23.669Z,49.97
2018-12-18T11:14:00.230Z,47.13
2018-12-18T11:16:37.416Z,54.37
2018-12-18T11:19:14.055Z,58.53
2018-12-18T11:21:49.724Z,54.73
2018-12-18T11:24:25.522Z,63.30
2018-12-18T11:27:01.573Z,56.07
2018-12-18T11:29:37.261Z,52.67
2018-12-18T11:32:13.417Z,54.27
2018-12-18T11:34:49.050Z,51.27
2018-12-18T11:37:25.176Z,73.40
2018-12-18T11:40:02.741Z,72.07
2018-12-18T11:42:38.514Z,84.47
2018-12-18T11:45:14.570Z,71.80
2018-12-18T11:47:50.324Z,75.90
2018-12-18T11:50:26.051Z,72.03
2018-12-18T11:53:02.143Z,81.37
2018-12-18T11:55:38.759Z,67.23
2018-12-18T11:58:15.792Z,68.43
2018-12-18T12:00:51.720Z,59.23
2018-12-18T12:03:28.510Z,60.37
2018-12-18T12:06:07.346Z,60.47
2018-12-18T12:08:43.822Z,61.20
2018-12-18T12:11:20.628Z,68.30
2018-12-18T12:13:58.257Z,65.87
2018-12-18T12:16:35.198Z,67.37
2018-12-18T12:19:12.041Z,56.10
2018-12-18T12:21:48.478Z,60.57
2018-12-18T12:24:24.943Z,56.50
2018-12-18T12:27:06.460Z,61.80
2018-12-18T12:29:44.039Z,63.60
2018-12-18T12:32:21.198Z,67.30
2018-12-18T12:34:57.480Z,70.97
2018-12-18T12:37:33.427Z,99.20
2018-12-18T12:40:10.447Z,77.70
2018-12-18T12:42:46.436Z,63.50
2018-12-18T12:45:22.928Z,59.87
2018-12-18T12:48:02.821Z,55.13
2018-12-18T12:50:39.289Z,59.80
2018-12-18T12:53:15.941Z,58.63
2018-12-18T12:55:52.812Z,58.37
2018-12-18T12:58:29.420Z,57.67
2018-12-18T13:01:06.164Z,56.37
2018-12-18T13:03:43.686Z,54.93
2018-12-18T13:06:20.904Z,58.30
2018-12-18T13:08:57.719Z,59.87
2018-12-18T13:11:34.578Z,61.50
2018-12-18T13:14:10.644Z,60.40
2018-12-18T13:16:46.721Z,67.30
2018-12-18T13:19:24.711Z,64.50
2018-12-18T13:22:02.274Z,69.57
2018-12-18T13:24:38.170Z,65.63
2018-12-18T13:27:14.585Z,72.03
2018-12-18T13:29:51.296Z,68.83
2018-12-18T13:32:28.240Z,65.87
2018-12-18T13:35:05.689Z,68.13
2018-12-18T13:37:42.930Z,64.23
2018-12-18T13:40:19.876Z,62.27
2018-12-18T13:42:56.250Z,64.23
2018-12-18T13:45:33.383Z,64.97
2018-12-18T13:48:10.265Z,65.30
2018-12-18T13:50:47.023Z,61.57
2018-12-18T13:53:23.428Z,83.00
2018-12-18T13:55:59.948Z,68.37
2018-12-18T13:58:36.732Z,63.20
2018-12-18T14:01:13.691Z,64.23
2018-12-18T14:03:50.262Z,67.83
2018-12-18T14:06:26.922Z,71.53
2018-12-18T14:09:02.659Z,69.23
2018-12-18T14:11:40.750Z,72.50
2018-12-18T14:14:18.630Z,73.33
2018-12-18T14:16:54.913Z,70.17
2018-12-18T14:19:31.268Z,67.40
2018-12-18T14:22:07.433Z,70.00
2018-12-18T14:24:45.147Z,73.00
2018-12-18T14:27:21.104Z,71.63
2018-12-18T14:29:58.637Z,67.60
2018-12-18T14:32:34.649Z,67.03
2018-12-18T14:35:11.308Z,81.10
2018-12-18T14:37:48.890Z,75.23
2018-12-18T14:40:25.731Z,66.53
2018-12-18T14:43:01.694Z,66.80
2018-12-18T14:45:39.278Z,68.70
2018-12-18T14:48:16.061Z,68.03
2018-12-18T14:50:53.171Z,60.67
2018-12-18T14:53:30.286Z,62.70
2018-12-18T14:56:06.814Z,65.77
2018-12-18T14:58:42.968Z,63.07
2018-12-18T15:01:19.923Z,69.67
2018-12-18T15:03:56.561Z,68.63
2018-12-18T15:06:32.504Z,67.00
2018-12-18T15:09:08.342Z,59.77
2018-12-18T15:11:44.409Z,61.77
2018-12-18T15:14:20.186Z,59.37
2018-12-18T15:16:56.006Z,56.73
2018-12-18T15:19:31.670Z,67.43
2018-12-18T15:22:07.540Z,74.90
2018-12-18T15:24:43.537Z,62.23
2018-12-18T15:27:20.571Z,61.47
2018-12-18T15:29:56.304Z,62.23
2018-12-18T15:32:32.428Z,58.83
2018-12-18T15:35:08.288Z,72.20
2018-12-18T15:37:44.199Z,66.70
2018-12-18T15:40:20.823Z,59.30
2018-12-18T15:42:57.708Z,69.83
2018-12-18T15:45:34.088Z,76.73
2018-12-18T15:48:10.710Z,71.67
2018-12-18T15:50:47.790Z,71.37
2018-12-18T15:53:24.316Z,73.73
2018-12-18T15:56:00.208Z,69.30
2018-12-18T15:58:36.771Z,64.97
2018-12-18T16:01:12.562Z,64.20
2018-12-18T16:03:48.294Z,71.40
2018-12-18T16:06:24.159Z,59.63
2018-12-18T16:09:00.283Z,66.40
2018-12-18T16:11:38.372Z,62.57
2018-12-18T16:14:14.764Z,63.03
2018-12-18T16:16:51.051Z,64.30
2018-12-18T16:19:27.041Z,67.13
2018-12-18T16:22:02.930Z,84.37
2018-12-18T16:24:38.784Z,69.43
2018-12-18T16:27:14.541Z,75.77
2018-12-18T16:29:50.452Z,77.97
2018-12-18T16:32:26.444Z,75.23
2018-12-18T16:35:02.169Z,101.23
2018-12-18T16:37:39.040Z,72.07
2018-12-18T16:40:15.367Z,68.33
2018-12-18T16:42:51.827Z,63.43
2018-12-18T16:45:28.479Z,61.57
2018-12-18T16:48:05.125Z,55.57
2018-12-18T16:50:41.387Z,76.80
2018-12-18T16:53:17.480Z,69.57
2018-12-18T16:55:54.471Z,61.13
2018-12-18T16:58:30.510Z,63.10
2018-12-18T17:01:06.497Z,62.87
2018-12-18T17:03:43.375Z,63.23
2018-12-18T17:06:20.351Z,61.77
2018-12-18T17:08:56.046Z,75.43
2018-12-18T17:11:35.090Z,98.00
2018-12-18T17:14:14.327Z,68.23
2018-12-18T17:16:50.611Z,62.00
2018-12-18T17:19:26.318Z,61.13
2018-12-18T17:22:03.222Z,68.47
2018-12-18T17:24:39.341Z,60.67
2018-12-18T17:27:15.212Z,56.67
2018-12-18T17:29:52.188Z,55.20
2018-12-18T17:32:29.570Z,49.90
2018-12-18T17:35:05.907Z,53.40
2018-12-18T17:37:42.589Z,60.20
2018-12-18T17:40:19.314Z,52.40
2018-12-18T17:42:55.452Z,53.30
2018-12-18T17:45:32.166Z,64.10
2018-12-18T17:48:09.786Z,63.10
2018-12-18T17:50:45.735Z,58.70
2018-12-18T17:53:21.424Z,55.67
2018-12-18T17:55:57.495Z,51.80
2018-12-18T17:58:33.462Z,49.97
2018-12-18T18:01:12.562Z,50.57
2018-12-18T18:03:49.792Z,51.87
2018-12-18T18:06:27.457Z,53.73
2018-12-18T18:09:05.792Z,48.13
2018-12-18T18:11:43.989Z,51.13
2018-12-18T18:14:21.638Z,55.93
2018-12-18T18:16:58.375Z,46.57
2018-12-18T18:19:35.588Z,57.93
2018-12-18T18:22:11.655Z,52.93
2018-12-18T18:24:48.563Z,51.37
2018-12-18T18:27:25.461Z,48.20
2018-12-18T18:30:02.077Z,51.77
2018-12-18T18:32:38.948Z,58.30
2018-12-18T18:35:16.214Z,56.13
2018-12-18T18:37:53.275Z,56.33
2018-12-18T18:40:30.104Z,48.20
2018-12-18T18:43:08.271Z,54.03
2018-12-18T18:45:44.534Z,56.97
2018-12-18T18:48:22.928Z,57.07
2018-12-18T18:51:00.017Z,49.13
2018-12-18T18:53:35.931Z,48.83
2018-12-18T18:56:12.081Z,51.17
2018-12-18T18:58:48.822Z,59.70
2018-12-18T19:01:25.463Z,56.00
2018-12-18T19:04:01.603Z,51.83
2018-12-18T19:06:37.582Z,53.53
2018-12-18T19:09:13.714Z,54.03
2018-12-18T19:11:50.504Z,50.47
2018-12-18T19:14:28.057Z,54.17
2018-12-18T19:17:05.179Z,59.10
2018-12-18T19:19:42.590Z,56.73
2018-12-18T19:22:19.899Z,67.17
2018-12-18T19:24:57.774Z,64.47
2018-12-18T19:27:34.553Z,71.27
2018-12-18T19:30:10.913Z,68.57
2018-12-18T19:32:47.939Z,78.13
2018-12-18T19:35:24.584Z,84.57
2018-12-18T19:38:03.284Z,100.73
2018-12-18T19:40:39.006Z,104.73
2018-12-18T19:43:14.778Z,104.57
2018-12-18T19:45:51.173Z,97.13
2018-12-18T19:48:28.041Z,114.00
2018-12-18T19:51:04.676Z,98.07
2018-12-18T19:53:41.699Z,103.13
2018-12-18T19:56:18.672Z,113.80
2018-12-18T19:58:56.558Z,122.40
2018-12-18T20:01:33.790Z,98.77
2018-12-18T20:04:10.122Z,102.20
2018-12-18T20:06:45.793Z,113.70
2018-12-18T20:09:21.775Z,118.10
2018-12-18T20:11:58.002Z,108.00
2018-12-18T20:14:34.832Z,100.63
2018-12-18T20:17:12.118Z,98.87
2018-12-18T20:19:49.882Z,92.87
2018-12-18T20:22:26.979Z,80.77
2018-12-18T20:25:03.534Z,82.83
2018-12-18T20:27:39.246Z,80.53
2018-12-18T20:30:14.988Z,77.57
2018-12-18T20:32:50.895Z,84.10
2018-12-18T20:35:27.895Z,96.27
2018-12-18T20:38:04.817Z,80.97
2018-12-18T20:40:42.836Z,111.77
2018-12-18T20:43:22.125Z,90.93
2018-12-18T20:46:00.819Z,88.40
2018-12-18T20:48:37.807Z,73.83
2018-12-18T20:54:28.749Z,66.07
2018-12-18T20:57:04.935Z,60.77
2018-12-18T20:59:40.908Z,60.57
2018-12-18T21:02:16.710Z,62.17
2018-12-18T21:04:52.615Z,69.47
2018-12-18T21:07:28.605Z,65.83
2018-12-18T21:10:06.187Z,67.50
2018-12-18T21:12:46.672Z,64.93
2018-12-18T21:15:24.243Z,64.83
2018-12-18T21:18:01.076Z,83.33
2018-12-18T21:20:38.238Z,114.47
2018-12-18T21:23:15.215Z,105.73
2018-12-18T21:25:52.126Z,115.63
2018-12-18T21:28:29.063Z,133.97
2018-12-18T21:31:05.405Z,118.07
2018-12-18T21:33:42.225Z,118.30
2018-12-18T21:36:18.728Z,135.43
2018-12-18T21:38:55.508Z,114.30
2018-12-18T21:41:32.628Z,121.13
2018-12-18T21:44:10.092Z,114.07
2018-12-18T21:46:47.996Z,108.33
2018-12-18T21:49:26.814Z,101.30
2018-12-18T21:52:05.088Z,96.37
2018-12-18T21:54:42.079Z,100.97
2018-12-18T21:57:19.651Z,109.93
2018-12-18T21:59:56.546Z,105.03
2018-12-18T22:02:33.608Z,105.50
2018-12-18T22:05:10.201Z,92.57
2018-12-18T22:07:47.252Z,104.70
2018-12-18T22:10:23.882Z,116.27
2018-12-18T22:13:01.115Z,104.93
2018-12-18T22:15:38.348Z,104.40
2018-12-18T22:18:15.129Z,110.73
2018-12-18T22:20:52.798Z,107.97
2018-12-18T22:23:29.453Z,98.23
2018-12-18T22:26:07.003Z,106.37
2018-12-18T22:28:45.015Z,108.63
2018-12-18T22:31:22.488Z,95.67
2018-12-18T22:33:58.913Z,94.87
2018-12-18T22:36:35.654Z,101.77
2018-12-18T22:39:13.436Z,106.20
2018-12-18T22:41:50.888Z,118.83
2018-12-18T22:44:28.123Z,100.60
2018-12-18T22:47:04.641Z,113.97
2018-12-18T22:49:41.959Z,124.63
2018-12-18T22:52:18.779Z,114.37
2018-12-18T22:54:55.153Z,109.50
2018-12-18T22:57:41.602Z,110.53
2018-12-18T23:03:43.945Z,103.93
2018-12-18T23:06:24.157Z,101.07
2018-12-18T23:09:04.995Z,103.90
2018-12-18T23:11:51.390Z,105.43
2018-12-18T23:14:31.598Z,102.53
2018-12-18T23:20:14.354Z,111.70
2018-12-18T23:22:50.343Z,106.70
2018-12-18T23:25:26.311Z,107.57
2018-12-18T23:28:03.367Z,112.17
2018-12-18T23:30:39.039Z,96.87
2018-12-18T23:33:14.886Z,112.33
2018-12-18T23:35:50.986Z,102.60
2018-12-18T23:38:26.775Z,109.43
2018-12-18T23:41:02.616Z,116.30
2018-12-18T23:43:38.391Z,122.63
2018-12-18T23:46:14.358Z,120.63
2018-12-18T23:48:50.499Z,123.03
2018-12-18T23:51:26.327Z,137.37
2018-12-18T23:54:01.965Z,131.30
2018-12-18T23:56:38.590Z,140.13
2018-12-18T23:59:14.939Z,137.17
